sensor_id;sensor_type;location;lat;lon;timestamp;P1;durP1;ratioP1;P2;durP2;ratioP2
9138;SDS011;4604;48.616;9.548;2022-12-07T00:00:53;11.33;;;6.33;;
9138;SDS011;4604;48.616;9.548;2022-12-07T00:03:19;8.43;;;6.13;;
9138;SDS011;4604;48.616;9.548;2022-12-07T00:05:49;9.33;;;5.87;;
9138;SDS011;4604;48.616;9.548;2022-12-07T00:08:16;9.17;;;5.60;;
9138;SDS011;4604;48.616;9.548;2022-12-07T00:10:42;7.70;;;5.73;;
9138;SDS011;4604;48.616;9.548;2022-12-07T00:13:09;8.80;;;5.80;;
9138;SDS011;4604;48.616;9.548;2022-12-07T00:15:37;8.30;;;5.27;;
9138;SDS011;4604;48.616;9.548;2022-12-07T00:18:04;9.43;;;5.93;;
9138;SDS011;4604;48.616;9.548;2022-12-07T00:20:31;8.53;;;5.83;;
9138;SDS011;4604;48.616;9.548;2022-12-07T00:22:58;16.60;;;10.43;;
9138;SDS011;4604;48.616;9.548;2022-12-07T00:25:25;10.40;;;7.40;;
9138;SDS011;4604;48.616;9.548;2022-12-07T00:27:52;15.60;;;10.50;;
9138;SDS011;4604;48.616;9.548;2022-12-07T00:30:20;12.63;;;7.37;;
9138;SDS011;4604;48.616;9.548;2022-12-07T00:32:49;14.90;;;9.73;;
9138;SDS011;4604;48.616;9.548;2022-12-07T00:35:15;16.87;;;11.53;;
9138;SDS011;4604;48.616;9.548;2022-12-07T00:37:42;13.67;;;8.33;;
9138;SDS011;4604;48.616;9.548;2022-12-07T00:40:09;13.30;;;8.63;;
9138;SDS011;4604;48.616;9.548;2022-12-07T00:42:36;10.43;;;7.27;;
9138;SDS011;4604;48.616;9.548;2022-12-07T00:45:03;9.90;;;7.27;;
9138;SDS011;4604;48.616;9.548;2022-12-07T00:47:31;12.67;;;8.20;;
9138;SDS011;4604;48.616;9.548;2022-12-07T00:49:59;10.90;;;7.30;;
9138;SDS011;4604;48.616;9.548;2022-12-07T00:52:26;12.57;;;7.53;;
9138;SDS011;4604;48.616;9.548;2022-12-07T00:54:52;9.90;;;6.63;;
9138;SDS011;4604;48.616;9.548;2022-12-07T00:57:19;10.83;;;6.87;;
9138;SDS011;4604;48.616;9.548;2022-12-07T00:59:48;13.20;;;7.63;;
9138;SDS011;4604;48.616;9.548;2022-12-07T01:02:15;9.77;;;7.07;;
9138;SDS011;4604;48.616;9.548;2022-12-07T01:04:41;10.67;;;6.97;;
9138;SDS011;4604;48.616;9.548;2022-12-07T01:07:10;13.80;;;7.20;;
9138;SDS011;4604;48.616;9.548;2022-12-07T01:09:36;10.33;;;6.73;;
9138;SDS011;4604;48.616;9.548;2022-12-07T01:12:03;10.70;;;7.03;;
9138;SDS011;4604;48.616;9.548;2022-12-07T01:14:30;10.43;;;6.53;;
9138;SDS011;4604;48.616;9.548;2022-12-07T01:16:57;10.07;;;6.97;;
9138;SDS011;4604;48.616;9.548;2022-12-07T01:19:24;14.37;;;7.00;;
9138;SDS011;4604;48.616;9.548;2022-12-07T01:21:51;11.03;;;7.27;;
9138;SDS011;4604;48.616;9.548;2022-12-07T01:24:19;11.30;;;7.07;;
9138;SDS011;4604;48.616;9.548;2022-12-07T01:26:45;13.33;;;6.90;;
9138;SDS011;4604;48.616;9.548;2022-12-07T01:29:15;13.63;;;6.60;;
9138;SDS011;4604;48.616;9.548;2022-12-07T01:31:41;10.80;;;7.13;;
9138;SDS011;4604;48.616;9.548;2022-12-07T01:34:08;12.93;;;7.10;;
9138;SDS011;4604;48.616;9.548;2022-12-07T01:36:36;12.03;;;7.40;;
9138;SDS011;4604;48.616;9.548;2022-12-07T01:39:04;10.87;;;6.73;;
9138;SDS011;4604;48.616;9.548;2022-12-07T01:41:35;10.20;;;6.83;;
9138;SDS011;4604;48.616;9.548;2022-12-07T01:44:12;14.63;;;7.17;;
9138;SDS011;4604;48.616;9.548;2022-12-07T01:46:44;10.37;;;6.60;;
9138;SDS011;4604;48.616;9.548;2022-12-07T01:49:13;12.43;;;7.10;;
9138;SDS011;4604;48.616;9.548;2022-12-07T01:51:45;9.87;;;6.63;;
9138;SDS011;4604;48.616;9.548;2022-12-07T01:54:13;10.30;;;6.80;;
9138;SDS011;4604;48.616;9.548;2022-12-07T01:56:44;11.87;;;7.03;;
9138;SDS011;4604;48.616;9.548;2022-12-07T01:59:14;10.10;;;6.77;;
9138;SDS011;4604;48.616;9.548;2022-12-07T02:01:42;11.57;;;6.47;;
9138;SDS011;4604;48.616;9.548;2022-12-07T02:04:10;11.10;;;7.03;;
9138;SDS011;4604;48.616;9.548;2022-12-07T02:06:38;12.30;;;6.90;;
9138;SDS011;4604;48.616;9.548;2022-12-07T02:09:06;10.73;;;6.63;;
9138;SDS011;4604;48.616;9.548;2022-12-07T02:11:33;14.47;;;7.53;;
9138;SDS011;4604;48.616;9.548;2022-12-07T02:14:01;12.10;;;6.57;;
9138;SDS011;4604;48.616;9.548;2022-12-07T02:16:30;13.13;;;7.40;;
9138;SDS011;4604;48.616;9.548;2022-12-07T02:19:09;13.33;;;7.37;;
9138;SDS011;4604;48.616;9.548;2022-12-07T02:21:51;11.97;;;7.10;;
9138;SDS011;4604;48.616;9.548;2022-12-07T02:24:27;11.53;;;7.03;;
9138;SDS011;4604;48.616;9.548;2022-12-07T02:27:09;14.07;;;7.80;;
9138;SDS011;4604;48.616;9.548;2022-12-07T02:30:02;13.47;;;7.10;;
9138;SDS011;4604;48.616;9.548;2022-12-07T02:32:33;12.27;;;7.13;;
9138;SDS011;4604;48.616;9.548;2022-12-07T02:35:10;11.67;;;7.10;;
9138;SDS011;4604;48.616;9.548;2022-12-07T02:37:43;11.03;;;7.30;;
9138;SDS011;4604;48.616;9.548;2022-12-07T02:40:19;12.53;;;7.20;;
9138;SDS011;4604;48.616;9.548;2022-12-07T02:42:53;12.73;;;7.40;;
9138;SDS011;4604;48.616;9.548;2022-12-07T02:45:26;14.27;;;8.20;;
9138;SDS011;4604;48.616;9.548;2022-12-07T02:47:56;15.00;;;7.97;;
9138;SDS011;4604;48.616;9.548;2022-12-07T02:50:25;14.00;;;8.03;;
9138;SDS011;4604;48.616;9.548;2022-12-07T02:52:53;12.80;;;7.63;;
9138;SDS011;4604;48.616;9.548;2022-12-07T02:55:22;15.17;;;8.80;;
9138;SDS011;4604;48.616;9.548;2022-12-07T02:57:59;12.37;;;7.40;;
9138;SDS011;4604;48.616;9.548;2022-12-07T03:00:44;13.37;;;7.90;;
9138;SDS011;4604;48.616;9.548;2022-12-07T03:03:19;13.57;;;7.87;;
9138;SDS011;4604;48.616;9.548;2022-12-07T03:08:39;10.93;;;7.23;;
9138;SDS011;4604;48.616;9.548;2022-12-07T03:11:15;12.33;;;7.83;;
9138;SDS011;4604;48.616;9.548;2022-12-07T03:13:48;13.53;;;6.70;;
9138;SDS011;4604;48.616;9.548;2022-12-07T03:16:21;12.80;;;7.47;;
9138;SDS011;4604;48.616;9.548;2022-12-07T03:18:53;11.40;;;7.47;;
9138;SDS011;4604;48.616;9.548;2022-12-07T03:21:23;11.80;;;7.30;;
9138;SDS011;4604;48.616;9.548;2022-12-07T03:23:55;13.90;;;7.27;;
9138;SDS011;4604;48.616;9.548;2022-12-07T03:26:30;12.03;;;7.10;;
9138;SDS011;4604;48.616;9.548;2022-12-07T03:29:02;11.97;;;7.63;;
9138;SDS011;4604;48.616;9.548;2022-12-07T03:31:37;15.47;;;8.50;;
9138;SDS011;4604;48.616;9.548;2022-12-07T03:34:11;16.07;;;8.43;;
9138;SDS011;4604;48.616;9.548;2022-12-07T03:36:43;15.00;;;7.93;;
9138;SDS011;4604;48.616;9.548;2022-12-07T03:39:17;17.50;;;8.73;;
9138;SDS011;4604;48.616;9.548;2022-12-07T03:41:50;13.50;;;8.33;;
9138;SDS011;4604;48.616;9.548;2022-12-07T03:44:18;14.73;;;8.40;;
9138;SDS011;4604;48.616;9.548;2022-12-07T03:46:49;14.80;;;8.17;;
9138;SDS011;4604;48.616;9.548;2022-12-07T03:49:30;15.00;;;7.47;;
9138;SDS011;4604;48.616;9.548;2022-12-07T03:52:06;13.93;;;8.03;;
9138;SDS011;4604;48.616;9.548;2022-12-07T03:54:39;14.87;;;8.13;;
9138;SDS011;4604;48.616;9.548;2022-12-07T03:57:12;14.50;;;8.63;;
9138;SDS011;4604;48.616;9.548;2022-12-07T03:59:43;14.40;;;8.60;;
9138;SDS011;4604;48.616;9.548;2022-12-07T04:02:12;12.67;;;7.80;;
9138;SDS011;4604;48.616;9.548;2022-12-07T04:04:39;15.27;;;7.90;;
9138;SDS011;4604;48.616;9.548;2022-12-07T04:07:08;13.33;;;7.93;;
9138;SDS011;4604;48.616;9.548;2022-12-07T04:09:35;14.00;;;7.97;;
9138;SDS011;4604;48.616;9.548;2022-12-07T04:12:02;14.50;;;7.90;;
9138;SDS011;4604;48.616;9.548;2022-12-07T04:14:29;13.97;;;8.13;;
9138;SDS011;4604;48.616;9.548;2022-12-07T04:16:57;15.97;;;8.57;;
9138;SDS011;4604;48.616;9.548;2022-12-07T04:19:26;13.33;;;7.60;;
9138;SDS011;4604;48.616;9.548;2022-12-07T04:21:54;15.10;;;8.73;;
9138;SDS011;4604;48.616;9.548;2022-12-07T04:24:22;14.97;;;8.80;;
9138;SDS011;4604;48.616;9.548;2022-12-07T04:26:55;13.77;;;7.73;;
9138;SDS011;4604;48.616;9.548;2022-12-07T04:29:22;13.17;;;8.10;;
9138;SDS011;4604;48.616;9.548;2022-12-07T04:31:55;13.57;;;8.10;;
9138;SDS011;4604;48.616;9.548;2022-12-07T04:34:22;13.97;;;8.10;;
9138;SDS011;4604;48.616;9.548;2022-12-07T04:36:57;13.20;;;7.63;;
9138;SDS011;4604;48.616;9.548;2022-12-07T04:39:24;13.13;;;7.53;;
9138;SDS011;4604;48.616;9.548;2022-12-07T04:41:52;15.33;;;8.13;;
9138;SDS011;4604;48.616;9.548;2022-12-07T04:44:20;11.57;;;7.53;;
9138;SDS011;4604;48.616;9.548;2022-12-07T04:46:48;16.17;;;8.20;;
9138;SDS011;4604;48.616;9.548;2022-12-07T04:49:15;13.23;;;7.60;;
9138;SDS011;4604;48.616;9.548;2022-12-07T04:51:42;14.60;;;7.53;;
9138;SDS011;4604;48.616;9.548;2022-12-07T04:54:11;12.27;;;7.40;;
9138;SDS011;4604;48.616;9.548;2022-12-07T04:56:38;16.33;;;8.77;;
9138;SDS011;4604;48.616;9.548;2022-12-07T04:59:05;15.03;;;8.20;;
9138;SDS011;4604;48.616;9.548;2022-12-07T05:01:32;12.70;;;7.73;;
9138;SDS011;4604;48.616;9.548;2022-12-07T05:03:59;14.53;;;7.43;;
9138;SDS011;4604;48.616;9.548;2022-12-07T05:06:26;13.00;;;7.30;;
9138;SDS011;4604;48.616;9.548;2022-12-07T05:08:53;13.77;;;7.63;;
9138;SDS011;4604;48.616;9.548;2022-12-07T05:11:21;14.13;;;7.30;;
9138;SDS011;4604;48.616;9.548;2022-12-07T05:14:07;11.47;;;7.23;;
9138;SDS011;4604;48.616;9.548;2022-12-07T05:16:37;14.23;;;7.80;;
9138;SDS011;4604;48.616;9.548;2022-12-07T05:19:04;13.80;;;7.37;;
9138;SDS011;4604;48.616;9.548;2022-12-07T05:21:31;12.37;;;6.53;;
9138;SDS011;4604;48.616;9.548;2022-12-07T05:23:58;13.13;;;7.47;;
9138;SDS011;4604;48.616;9.548;2022-12-07T05:26:26;12.90;;;6.63;;
9138;SDS011;4604;48.616;9.548;2022-12-07T05:28:54;13.03;;;7.60;;
9138;SDS011;4604;48.616;9.548;2022-12-07T05:31:22;13.07;;;7.13;;
9138;SDS011;4604;48.616;9.548;2022-12-07T05:33:50;13.07;;;7.37;;
9138;SDS011;4604;48.616;9.548;2022-12-07T05:36:17;12.03;;;7.37;;
9138;SDS011;4604;48.616;9.548;2022-12-07T05:38:44;12.00;;;6.80;;
9138;SDS011;4604;48.616;9.548;2022-12-07T05:41:12;12.00;;;6.70;;
9138;SDS011;4604;48.616;9.548;2022-12-07T05:43:55;12.77;;;7.47;;
9138;SDS011;4604;48.616;9.548;2022-12-07T05:46:22;11.97;;;7.33;;
9138;SDS011;4604;48.616;9.548;2022-12-07T05:48:55;13.40;;;7.10;;
9138;SDS011;4604;48.616;9.548;2022-12-07T05:51:22;13.77;;;7.50;;
9138;SDS011;4604;48.616;9.548;2022-12-07T05:53:55;13.13;;;7.40;;
9138;SDS011;4604;48.616;9.548;2022-12-07T05:56:22;13.87;;;8.10;;
9138;SDS011;4604;48.616;9.548;2022-12-07T05:58:56;17.73;;;8.33;;
9138;SDS011;4604;48.616;9.548;2022-12-07T06:01:40;13.57;;;7.47;;
9138;SDS011;4604;48.616;9.548;2022-12-07T06:04:07;11.07;;;6.97;;
9138;SDS011;4604;48.616;9.548;2022-12-07T06:06:34;13.50;;;7.60;;
9138;SDS011;4604;48.616;9.548;2022-12-07T06:09:01;12.70;;;7.20;;
9138;SDS011;4604;48.616;9.548;2022-12-07T06:11:28;12.47;;;6.80;;
9138;SDS011;4604;48.616;9.548;2022-12-07T06:14:14;11.07;;;6.80;;
9138;SDS011;4604;48.616;9.548;2022-12-07T06:16:41;11.83;;;6.63;;
9138;SDS011;4604;48.616;9.548;2022-12-07T06:19:08;12.63;;;7.03;;
9138;SDS011;4604;48.616;9.548;2022-12-07T06:21:34;11.93;;;7.40;;
9138;SDS011;4604;48.616;9.548;2022-12-07T06:24:01;11.07;;;6.60;;
9138;SDS011;4604;48.616;9.548;2022-12-07T06:26:28;11.13;;;6.37;;
9138;SDS011;4604;48.616;9.548;2022-12-07T06:28:54;11.97;;;7.33;;
9138;SDS011;4604;48.616;9.548;2022-12-07T06:31:23;11.43;;;6.67;;
9138;SDS011;4604;48.616;9.548;2022-12-07T06:33:49;11.37;;;7.10;;
9138;SDS011;4604;48.616;9.548;2022-12-07T06:36:17;13.23;;;7.00;;
9138;SDS011;4604;48.616;9.548;2022-12-07T06:38:44;11.43;;;6.77;;
9138;SDS011;4604;48.616;9.548;2022-12-07T06:41:10;11.33;;;6.33;;
9138;SDS011;4604;48.616;9.548;2022-12-07T06:43:37;9.73;;;6.43;;
9138;SDS011;4604;48.616;9.548;2022-12-07T06:46:04;11.97;;;6.47;;
9138;SDS011;4604;48.616;9.548;2022-12-07T06:48:32;11.20;;;6.67;;
9138;SDS011;4604;48.616;9.548;2022-12-07T06:50:59;8.47;;;5.63;;
9138;SDS011;4604;48.616;9.548;2022-12-07T06:53:26;10.93;;;6.30;;
9138;SDS011;4604;48.616;9.548;2022-12-07T06:55:53;9.93;;;5.97;;
9138;SDS011;4604;48.616;9.548;2022-12-07T06:58:19;10.03;;;5.93;;
9138;SDS011;4604;48.616;9.548;2022-12-07T07:00:47;11.30;;;6.60;;
9138;SDS011;4604;48.616;9.548;2022-12-07T07:03:14;11.77;;;6.57;;
9138;SDS011;4604;48.616;9.548;2022-12-07T07:05:42;11.63;;;7.20;;
9138;SDS011;4604;48.616;9.548;2022-12-07T07:08:10;15.23;;;7.53;;
9138;SDS011;4604;48.616;9.548;2022-12-07T07:10:37;13.83;;;8.00;;
9138;SDS011;4604;48.616;9.548;2022-12-07T07:13:04;12.07;;;7.43;;
9138;SDS011;4604;48.616;9.548;2022-12-07T07:15:32;11.07;;;7.23;;
9138;SDS011;4604;48.616;9.548;2022-12-07T07:17:59;10.00;;;6.40;;
9138;SDS011;4604;48.616;9.548;2022-12-07T07:20:25;8.40;;;5.80;;
9138;SDS011;4604;48.616;9.548;2022-12-07T07:22:55;11.00;;;7.03;;
9138;SDS011;4604;48.616;9.548;2022-12-07T07:25:22;13.07;;;7.07;;
9138;SDS011;4604;48.616;9.548;2022-12-07T07:27:55;11.50;;;6.83;;
9138;SDS011;4604;48.616;9.548;2022-12-07T07:30:21;13.67;;;7.40;;
9138;SDS011;4604;48.616;9.548;2022-12-07T07:32:55;15.77;;;7.30;;
9138;SDS011;4604;48.616;9.548;2022-12-07T07:35:22;11.57;;;6.90;;
9138;SDS011;4604;48.616;9.548;2022-12-07T07:37:57;10.60;;;6.10;;
9138;SDS011;4604;48.616;9.548;2022-12-07T07:40:24;16.90;;;7.00;;
9138;SDS011;4604;48.616;9.548;2022-12-07T07:42:53;12.97;;;6.80;;
9138;SDS011;4604;48.616;9.548;2022-12-07T07:45:21;10.50;;;6.27;;
9138;SDS011;4604;48.616;9.548;2022-12-07T07:50:19;9.60;;;5.93;;
9138;SDS011;4604;48.616;9.548;2022-12-07T07:52:46;10.73;;;6.03;;
9138;SDS011;4604;48.616;9.548;2022-12-07T07:55:15;10.80;;;6.50;;
9138;SDS011;4604;48.616;9.548;2022-12-07T07:57:42;11.60;;;6.47;;
9138;SDS011;4604;48.616;9.548;2022-12-07T08:00:10;11.20;;;6.53;;
9138;SDS011;4604;48.616;9.548;2022-12-07T08:02:38;12.00;;;7.10;;
9138;SDS011;4604;48.616;9.548;2022-12-07T08:05:06;12.57;;;7.33;;
9138;SDS011;4604;48.616;9.548;2022-12-07T08:07:33;12.70;;;7.20;;
9138;SDS011;4604;48.616;9.548;2022-12-07T08:10:00;11.77;;;6.70;;
9138;SDS011;4604;48.616;9.548;2022-12-07T08:12:28;12.47;;;7.30;;
9138;SDS011;4604;48.616;9.548;2022-12-07T08:14:55;11.90;;;7.20;;
9138;SDS011;4604;48.616;9.548;2022-12-07T08:17:22;11.27;;;6.90;;
9138;SDS011;4604;48.616;9.548;2022-12-07T08:19:49;12.73;;;7.97;;
9138;SDS011;4604;48.616;9.548;2022-12-07T08:22:15;13.87;;;8.70;;
9138;SDS011;4604;48.616;9.548;2022-12-07T08:24:42;14.20;;;9.07;;
9138;SDS011;4604;48.616;9.548;2022-12-07T08:27:11;18.73;;;9.73;;
9138;SDS011;4604;48.616;9.548;2022-12-07T08:29:42;11.57;;;8.03;;
9138;SDS011;4604;48.616;9.548;2022-12-07T08:32:09;15.43;;;7.90;;
9138;SDS011;4604;48.616;9.548;2022-12-07T08:34:35;11.00;;;7.33;;
9138;SDS011;4604;48.616;9.548;2022-12-07T08:37:03;9.10;;;6.47;;
9138;SDS011;4604;48.616;9.548;2022-12-07T08:39:29;10.60;;;6.20;;
9138;SDS011;4604;48.616;9.548;2022-12-07T08:41:56;10.60;;;6.30;;
9138;SDS011;4604;48.616;9.548;2022-12-07T08:44:23;10.97;;;6.23;;
9138;SDS011;4604;48.616;9.548;2022-12-07T08:46:58;12.03;;;7.07;;
9138;SDS011;4604;48.616;9.548;2022-12-07T08:49:27;13.37;;;6.53;;
9138;SDS011;4604;48.616;9.548;2022-12-07T08:51:59;14.67;;;7.47;;
9138;SDS011;4604;48.616;9.548;2022-12-07T08:54:26;12.07;;;7.20;;
9138;SDS011;4604;48.616;9.548;2022-12-07T08:56:54;10.83;;;6.33;;
9138;SDS011;4604;48.616;9.548;2022-12-07T08:59:22;11.73;;;6.53;;
9138;SDS011;4604;48.616;9.548;2022-12-07T09:01:57;11.83;;;6.50;;
9138;SDS011;4604;48.616;9.548;2022-12-07T09:04:24;12.33;;;7.10;;
9138;SDS011;4604;48.616;9.548;2022-12-07T09:06:53;11.87;;;6.97;;
9138;SDS011;4604;48.616;9.548;2022-12-07T09:09:20;11.63;;;7.13;;
9138;SDS011;4604;48.616;9.548;2022-12-07T09:11:47;13.53;;;7.40;;
9138;SDS011;4604;48.616;9.548;2022-12-07T09:14:14;12.60;;;7.17;;
9138;SDS011;4604;48.616;9.548;2022-12-07T09:16:42;11.97;;;7.73;;
9138;SDS011;4604;48.616;9.548;2022-12-07T09:19:10;11.63;;;6.80;;
9138;SDS011;4604;48.616;9.548;2022-12-07T09:21:37;13.70;;;7.53;;
9138;SDS011;4604;48.616;9.548;2022-12-07T09:24:04;14.23;;;8.30;;
9138;SDS011;4604;48.616;9.548;2022-12-07T09:26:31;15.23;;;8.77;;
9138;SDS011;4604;48.616;9.548;2022-12-07T09:28:58;18.03;;;10.63;;
9138;SDS011;4604;48.616;9.548;2022-12-07T09:31:25;17.57;;;10.10;;
9138;SDS011;4604;48.616;9.548;2022-12-07T09:33:55;13.80;;;8.77;;
9138;SDS011;4604;48.616;9.548;2022-12-07T09:36:24;11.90;;;7.50;;
9138;SDS011;4604;48.616;9.548;2022-12-07T09:38:51;11.57;;;7.07;;
9138;SDS011;4604;48.616;9.548;2022-12-07T09:41:17;10.30;;;6.43;;
9138;SDS011;4604;48.616;9.548;2022-12-07T09:43:45;9.30;;;5.37;;
9138;SDS011;4604;48.616;9.548;2022-12-07T09:46:13;9.67;;;5.93;;
9138;SDS011;4604;48.616;9.548;2022-12-07T09:48:42;11.87;;;6.80;;
9138;SDS011;4604;48.616;9.548;2022-12-07T09:51:13;6.97;;;4.53;;
9138;SDS011;4604;48.616;9.548;2022-12-07T09:53:44;8.57;;;6.10;;
9138;SDS011;4604;48.616;9.548;2022-12-07T09:56:11;9.33;;;5.37;;
9138;SDS011;4604;48.616;9.548;2022-12-07T09:58:39;10.13;;;5.97;;
9138;SDS011;4604;48.616;9.548;2022-12-07T10:01:09;9.70;;;5.40;;
9138;SDS011;4604;48.616;9.548;2022-12-07T10:03:40;8.53;;;5.30;;
9138;SDS011;4604;48.616;9.548;2022-12-07T10:06:10;6.00;;;3.93;;
9138;SDS011;4604;48.616;9.548;2022-12-07T10:08:38;10.43;;;4.03;;
9138;SDS011;4604;48.616;9.548;2022-12-07T10:11:07;6.63;;;4.03;;
9138;SDS011;4604;48.616;9.548;2022-12-07T10:13:36;6.10;;;3.80;;
9138;SDS011;4604;48.616;9.548;2022-12-07T10:16:05;5.83;;;3.50;;
9138;SDS011;4604;48.616;9.548;2022-12-07T10:18:33;4.90;;;4.00;;
9138;SDS011;4604;48.616;9.548;2022-12-07T10:21:08;4.97;;;3.23;;
9138;SDS011;4604;48.616;9.548;2022-12-07T10:23:39;5.93;;;3.30;;
9138;SDS011;4604;48.616;9.548;2022-12-07T10:26:20;6.80;;;4.00;;
9138;SDS011;4604;48.616;9.548;2022-12-07T10:28:53;5.00;;;3.50;;
9138;SDS011;4604;48.616;9.548;2022-12-07T10:31:22;6.30;;;4.20;;
9138;SDS011;4604;48.616;9.548;2022-12-07T10:33:53;5.97;;;3.67;;
9138;SDS011;4604;48.616;9.548;2022-12-07T10:36:22;6.63;;;3.87;;
9138;SDS011;4604;48.616;9.548;2022-12-07T10:38:51;5.67;;;3.50;;
9138;SDS011;4604;48.616;9.548;2022-12-07T10:41:21;5.20;;;3.60;;
9138;SDS011;4604;48.616;9.548;2022-12-07T10:43:48;4.53;;;3.50;;
9138;SDS011;4604;48.616;9.548;2022-12-07T10:46:24;7.67;;;3.90;;
9138;SDS011;4604;48.616;9.548;2022-12-07T10:49:18;4.67;;;3.23;;
9138;SDS011;4604;48.616;9.548;2022-12-07T10:52:04;4.93;;;3.63;;
9138;SDS011;4604;48.616;9.548;2022-12-07T10:54:41;7.60;;;4.20;;
9138;SDS011;4604;48.616;9.548;2022-12-07T10:57:25;5.23;;;3.40;;
9138;SDS011;4604;48.616;9.548;2022-12-07T11:00:08;5.00;;;3.63;;
9138;SDS011;4604;48.616;9.548;2022-12-07T11:02:49;5.53;;;3.70;;
9138;SDS011;4604;48.616;9.548;2022-12-07T11:05:33;4.43;;;3.20;;
9138;SDS011;4604;48.616;9.548;2022-12-07T11:08:09;5.83;;;3.60;;
9138;SDS011;4604;48.616;9.548;2022-12-07T11:10:45;6.10;;;4.20;;
9138;SDS011;4604;48.616;9.548;2022-12-07T11:13:24;5.70;;;4.00;;
9138;SDS011;4604;48.616;9.548;2022-12-07T11:21:44;5.87;;;3.83;;
9138;SDS011;4604;48.616;9.548;2022-12-07T11:24:24;6.97;;;3.87;;
9138;SDS011;4604;48.616;9.548;2022-12-07T11:27:02;7.60;;;4.20;;
9138;SDS011;4604;48.616;9.548;2022-12-07T11:29:45;7.60;;;4.30;;
9138;SDS011;4604;48.616;9.548;2022-12-07T11:32:19;8.30;;;4.50;;
9138;SDS011;4604;48.616;9.548;2022-12-07T11:34:56;7.33;;;3.70;;
9138;SDS011;4604;48.616;9.548;2022-12-07T11:37:32;6.73;;;4.27;;
9138;SDS011;4604;48.616;9.548;2022-12-07T11:40:02;9.07;;;4.70;;
9138;SDS011;4604;48.616;9.548;2022-12-07T11:42:41;12.10;;;4.33;;
9138;SDS011;4604;48.616;9.548;2022-12-07T11:45:15;4.87;;;3.53;;
9138;SDS011;4604;48.616;9.548;2022-12-07T11:47:47;5.40;;;3.40;;
9138;SDS011;4604;48.616;9.548;2022-12-07T11:50:27;6.23;;;3.70;;
9138;SDS011;4604;48.616;9.548;2022-12-07T11:53:01;6.07;;;3.60;;
9138;SDS011;4604;48.616;9.548;2022-12-07T11:55:38;7.27;;;3.87;;
9138;SDS011;4604;48.616;9.548;2022-12-07T11:58:19;10.07;;;4.50;;
9138;SDS011;4604;48.616;9.548;2022-12-07T12:00:51;5.87;;;4.00;;
9138;SDS011;4604;48.616;9.548;2022-12-07T12:03:28;5.80;;;3.40;;
9138;SDS011;4604;48.616;9.548;2022-12-07T12:05:59;7.53;;;3.90;;
9138;SDS011;4604;48.616;9.548;2022-12-07T12:08:27;7.57;;;4.47;;
9138;SDS011;4604;48.616;9.548;2022-12-07T12:11:00;8.03;;;4.60;;
9138;SDS011;4604;48.616;9.548;2022-12-07T12:13:44;7.43;;;4.73;;
9138;SDS011;4604;48.616;9.548;2022-12-07T12:16:37;7.83;;;4.33;;
9138;SDS011;4604;48.616;9.548;2022-12-07T12:19:19;5.90;;;3.80;;
9138;SDS011;4604;48.616;9.548;2022-12-07T12:21:54;6.50;;;3.90;;
9138;SDS011;4604;48.616;9.548;2022-12-07T12:24:24;6.73;;;4.00;;
9138;SDS011;4604;48.616;9.548;2022-12-07T12:26:54;7.17;;;4.47;;
9138;SDS011;4604;48.616;9.548;2022-12-07T12:29:28;7.20;;;4.40;;
9138;SDS011;4604;48.616;9.548;2022-12-07T12:32:11;7.50;;;4.20;;
9138;SDS011;4604;48.616;9.548;2022-12-07T12:34:41;6.20;;;3.90;;
9138;SDS011;4604;48.616;9.548;2022-12-07T12:37:39;6.53;;;4.20;;
9138;SDS011;4604;48.616;9.548;2022-12-07T12:55:17;6.90;;;4.73;;
9138;SDS011;4604;48.616;9.548;2022-12-07T12:57:47;7.47;;;4.87;;
9138;SDS011;4604;48.616;9.548;2022-12-07T13:00:39;7.27;;;4.30;;
9138;SDS011;4604;48.616;9.548;2022-12-07T13:03:16;8.13;;;4.10;;
9138;SDS011;4604;48.616;9.548;2022-12-07T13:05:48;11.20;;;4.40;;
9138;SDS011;4604;48.616;9.548;2022-12-07T13:08:46;9.90;;;4.43;;
9138;SDS011;4604;48.616;9.548;2022-12-07T13:11:17;10.30;;;4.47;;
9138;SDS011;4604;48.616;9.548;2022-12-07T13:13:46;8.13;;;4.20;;
9138;SDS011;4604;48.616;9.548;2022-12-07T13:22:40;7.87;;;4.37;;
9138;SDS011;4604;48.616;9.548;2022-12-07T13:25:11;7.83;;;4.40;;
9138;SDS011;4604;48.616;9.548;2022-12-07T13:27:46;11.90;;;6.30;;
9138;SDS011;4604;48.616;9.548;2022-12-07T13:30:21;8.97;;;5.53;;
9138;SDS011;4604;48.616;9.548;2022-12-07T13:32:51;6.50;;;4.40;;
9138;SDS011;4604;48.616;9.548;2022-12-07T13:35:32;7.60;;;4.40;;
9138;SDS011;4604;48.616;9.548;2022-12-07T13:38:05;7.00;;;3.93;;
9138;SDS011;4604;48.616;9.548;2022-12-07T13:40:43;9.27;;;4.60;;
9138;SDS011;4604;48.616;9.548;2022-12-07T13:43:26;5.60;;;3.60;;
9138;SDS011;4604;48.616;9.548;2022-12-07T13:45:55;7.23;;;4.60;;
9138;SDS011;4604;48.616;9.548;2022-12-07T13:48:24;5.63;;;4.00;;
9138;SDS011;4604;48.616;9.548;2022-12-07T13:50:57;5.43;;;3.73;;
9138;SDS011;4604;48.616;9.548;2022-12-07T13:53:27;7.83;;;4.30;;
9138;SDS011;4604;48.616;9.548;2022-12-07T13:55:55;8.47;;;4.23;;
9138;SDS011;4604;48.616;9.548;2022-12-07T13:58:23;7.00;;;4.10;;
9138;SDS011;4604;48.616;9.548;2022-12-07T14:00:50;6.33;;;3.93;;
9138;SDS011;4604;48.616;9.548;2022-12-07T14:03:23;7.03;;;4.30;;
9138;SDS011;4604;48.616;9.548;2022-12-07T14:06:04;8.30;;;3.80;;
9138;SDS011;4604;48.616;9.548;2022-12-07T14:08:35;6.33;;;3.80;;
9138;SDS011;4604;48.616;9.548;2022-12-07T14:11:02;7.60;;;3.90;;
9138;SDS011;4604;48.616;9.548;2022-12-07T14:13:30;6.23;;;4.27;;
9138;SDS011;4604;48.616;9.548;2022-12-07T14:15:59;10.47;;;5.43;;
9138;SDS011;4604;48.616;9.548;2022-12-07T14:18:26;8.37;;;4.83;;
9138;SDS011;4604;48.616;9.548;2022-12-07T14:21:04;9.80;;;5.43;;
9138;SDS011;4604;48.616;9.548;2022-12-07T14:23:32;9.30;;;5.13;;
9138;SDS011;4604;48.616;9.548;2022-12-07T14:26:07;11.87;;;4.70;;
9138;SDS011;4604;48.616;9.548;2022-12-07T14:28:38;8.80;;;4.97;;
9138;SDS011;4604;48.616;9.548;2022-12-07T14:31:08;6.60;;;4.63;;
9138;SDS011;4604;48.616;9.548;2022-12-07T14:33:37;7.47;;;4.47;;
9138;SDS011;4604;48.616;9.548;2022-12-07T14:36:05;8.43;;;5.20;;
9138;SDS011;4604;48.616;9.548;2022-12-07T14:38:32;6.57;;;4.73;;
9138;SDS011;4604;48.616;9.548;2022-12-07T14:40:59;12.57;;;5.13;;
9138;SDS011;4604;48.616;9.548;2022-12-07T14:43:48;7.63;;;4.93;;
9138;SDS011;4604;48.616;9.548;2022-12-07T14:46:15;6.90;;;4.33;;
9138;SDS011;4604;48.616;9.548;2022-12-07T14:48:42;11.17;;;4.83;;
9138;SDS011;4604;48.616;9.548;2022-12-07T14:51:09;12.40;;;5.30;;
9138;SDS011;4604;48.616;9.548;2022-12-07T14:53:39;7.53;;;4.90;;
9138;SDS011;4604;48.616;9.548;2022-12-07T14:56:08;6.40;;;4.37;;
9138;SDS011;4604;48.616;9.548;2022-12-07T14:58:35;11.80;;;5.03;;
9138;SDS011;4604;48.616;9.548;2022-12-07T15:01:03;8.40;;;5.33;;
9138;SDS011;4604;48.616;9.548;2022-12-07T15:03:30;9.23;;;4.67;;
9138;SDS011;4604;48.616;9.548;2022-12-07T15:05:59;9.67;;;5.10;;
9138;SDS011;4604;48.616;9.548;2022-12-07T15:08:26;7.37;;;5.00;;
9138;SDS011;4604;48.616;9.548;2022-12-07T15:10:53;9.73;;;5.37;;
9138;SDS011;4604;48.616;9.548;2022-12-07T15:13:20;8.43;;;5.23;;
9138;SDS011;4604;48.616;9.548;2022-12-07T15:16:07;10.23;;;5.33;;
9138;SDS011;4604;48.616;9.548;2022-12-07T15:18:37;9.47;;;5.70;;
9138;SDS011;4604;48.616;9.548;2022-12-07T15:21:03;9.80;;;5.77;;
9138;SDS011;4604;48.616;9.548;2022-12-07T15:23:31;12.63;;;5.70;;
9138;SDS011;4604;48.616;9.548;2022-12-07T15:25:57;8.27;;;5.07;;
9138;SDS011;4604;48.616;9.548;2022-12-07T15:28:24;9.73;;;5.70;;
9138;SDS011;4604;48.616;9.548;2022-12-07T15:30:51;18.17;;;6.20;;
9138;SDS011;4604;48.616;9.548;2022-12-07T15:33:19;9.63;;;5.27;;
9138;SDS011;4604;48.616;9.548;2022-12-07T15:35:46;11.17;;;5.70;;
9138;SDS011;4604;48.616;9.548;2022-12-07T15:38:13;7.57;;;4.87;;
9138;SDS011;4604;48.616;9.548;2022-12-07T15:40:39;9.03;;;5.37;;
9138;SDS011;4604;48.616;9.548;2022-12-07T15:43:07;9.60;;;5.43;;
9138;SDS011;4604;48.616;9.548;2022-12-07T15:46:01;8.07;;;4.90;;
9138;SDS011;4604;48.616;9.548;2022-12-07T15:48:28;7.43;;;4.93;;
9138;SDS011;4604;48.616;9.548;2022-12-07T15:51:01;10.93;;;6.13;;
9138;SDS011;4604;48.616;9.548;2022-12-07T15:53:28;9.00;;;5.37;;
9138;SDS011;4604;48.616;9.548;2022-12-07T15:55:55;9.27;;;5.50;;
9138;SDS011;4604;48.616;9.548;2022-12-07T15:58:22;11.07;;;5.60;;